Time;durP1;ratioP1;P1;durP2;ratioP2;P2;SDS_P1;SDS_P2;PMS_P1;PMS_P2;Temp;Humidity;BMP_temperature;BMP_pressure;BME280_temperature;BME280_humidity;BME280_pressure;Samples;Min_cycle;Max_cycle;Signal;HPM_P1;HPM_P2
2023/10/15 00:13:34;;;;;;;6.05;1.58;;;;;;;8.64;68.75;99886.91;31220781;28;97006;-62
2023/10/15 00:28:35;;;;;;;4.63;1.60;;;;;;;9.04;68.33;99878.25;31220362;28;97477;-62
2023/10/15 00:43:35;;;;;;;4.15;1.35;;;;;;;9.22;68.00;99878.06;31198268;27;112503;-64
2023/10/15 01:13:42;;;;;;;5.37;1.37;;;;;;;8.96;67.17;99887.06;31209015;27;96692;-64
2023/10/15 01:28:45;;;;;;;3.92;1.20;;;;;;;8.76;67.43;99884.75;31215564;28;107343;-65
2023/10/15 01:43:46;;;;;;;2.73;0.90;;;;;;;8.68;66.83;99898.03;31212970;27;96803;-64
2023/10/15 01:58:47;;;;;;;3.85;0.90;;;;;;;8.52;66.28;99905.97;31210868;27;96880;-63
2023/10/15 02:13:49;;;;;;;5.90;0.97;;;;;;;8.37;66.34;99909.22;31210425;28;98894;-63
2023/10/15 02:28:53;;;;;;;12.27;1.08;;;;;;;8.21;66.75;99890.63;31209039;28;97416;-62
2023/10/15 02:43:54;;;;;;;;;;;;;;;8.07;67.29;99913.28;31209101;28;97115;-62
2023/10/15 02:58:54;;;;;;;7.07;1.25;;;;;;;7.87;67.22;99918.03;31206691;27;96695;-63
2023/10/15 03:13:55;;;;;;;6.35;1.40;;;;;;;7.64;67.41;99923.91;31226054;27;103579;-62
2023/10/15 03:28:58;;;;;;;6.03;0.90;;;;;;;7.44;67.03;99934.69;31225829;27;97332;-65
2023/10/15 03:44:04;;;;;;;3.27;0.77;;;;;;;7.34;67.29;99941.09;31223568;27;97920;-65
2023/10/15 03:59:04;;;;;;;4.23;1.03;;;;;;;7.08;68.43;99949.84;31222118;27;97350;-64
2023/10/15 04:14:17;;;;;;;4.13;1.25;;;;;;;6.92;68.02;99945.25;31198345;27;98333;-64
2023/10/15 04:29:17;;;;;;;3.20;0.80;;;;;;;6.81;68.88;99926.94;31216900;28;97400;-63
2023/10/15 04:44:25;;;;;;;4.82;0.90;;;;;;;6.69;69.00;99924.53;31215140;28;97478;-63
2023/10/15 04:59:26;;;;;;;7.10;1.03;;;;;;;6.58;68.81;99932.69;31213992;27;96605;-62
2023/10/15 05:14:26;;;;;;;5.30;1.08;;;;;;;6.52;68.88;99936.78;31213062;28;110710;-62
2023/10/15 05:29:26;;;;;;;3.90;0.98;;;;;;;6.40;69.53;99945.91;31211985;27;97369;-61
2023/10/15 05:44:27;;;;;;;3.95;1.17;;;;;;;6.54;69.46;99963.91;31210494;27;97377;-64
2023/10/15 05:59:27;;;;;;;5.53;1.10;;;;;;;7.11;69.64;99974.22;31208369;27;96627;-61
2023/10/15 06:14:28;;;;;;;6.90;1.45;;;;;;;7.86;68.90;99974.69;31205893;28;96674;-62
2023/10/15 06:29:28;;;;;;;3.47;1.45;;;;;;;8.79;67.75;99993.31;31202841;28;96705;-62
2023/10/15 06:44:29;;;;;;;5.78;1.50;;;;;;;9.67;65.89;100006.94;31218203;27;97834;-63
2023/10/15 06:59:30;;;;;;;8.05;1.10;;;;;;;10.42;64.35;100010.25;31225850;27;97042;-64
2023/10/15 07:14:30;;;;;;;3.30;1.03;;;;;;;11.18;61.82;100013.94;31225698;28;97322;-63
2023/10/15 07:29:31;;;;;;;4.68;1.00;;;;;;;12.16;58.71;100023.84;31222715;27;97131;-61
2023/10/15 07:44:32;;;;;;;7.70;1.70;;;;;;;13.07;55.95;100012.78;31220083;28;97379;-62
2023/10/15 07:59:32;;;;;;;5.80;1.10;;;;;;;14.62;53.28;100028.06;31218378;27;97703;-61
2023/10/15 08:14:33;;;;;;;5.10;1.67;;;;;;;16.40;48.02;100022.13;31217276;28;101076;-62
2023/10/15 08:29:33;;;;;;;4.20;1.00;;;;;;;22.41;36.26;100033.66;31216017;28;103419;-63
2023/10/15 08:44:34;;;;;;;5.80;0.98;;;;;;;24.81;31.03;100039.59;31215048;28;96849;-62
2023/10/15 08:59:40;;;;;;;4.63;1.30;;;;;;;30.60;25.18;100028.44;31193216;27;99618;-64
2023/10/15 09:14:42;;;;;;;4.87;1.63;;;;;;;32.06;22.00;100025.41;31212042;27;97174;-64
2023/10/15 09:29:43;;;;;;;6.30;1.50;;;;;;;32.64;20.56;100023.41;31210727;27;97484;-63
2023/10/15 09:44:43;;;;;;;7.75;1.55;;;;;;;33.11;19.00;100022.81;31208012;27;98009;-63
2023/10/15 09:59:51;;;;;;;6.90;1.55;;;;;;;33.84;17.07;100010.94;31207436;28;97723;-66
2023/10/15 10:15:14;;;;;;;7.20;1.67;;;;;;;32.61;17.90;100004.78;31205046;28;97197;-65
2023/10/15 10:30:29;;;;;;;5.57;1.50;;;;;;;32.14;17.51;99993.50;31203929;28;98138;-65
2023/10/15 10:45:53;;;;;;;7.10;1.43;;;;;;;23.91;22.50;99984.22;31205190;28;97417;-65
2023/10/15 11:00:54;;;;;;;5.23;1.53;;;;;;;30.33;17.98;99983.38;31202996;28;97588;-64
2023/10/15 11:15:56;;;;;;;5.83;1.83;;;;;;;20.33;26.37;99962.00;31201641;27;97101;-61
2023/10/15 11:30:56;;;;;;;4.27;0.93;;;;;;;17.45;31.11;99963.50;31216046;28;97541;-65
2023/10/15 11:46:07;;;;;;;5.20;1.23;;;;;;;31.58;18.22;99933.34;31220702;27;97625;-65
2023/10/15 12:01:10;;;;;;;5.70;1.50;;;;;;;21.96;25.83;99954.13;31219600;27;96926;-63
2023/10/15 12:16:13;;;;;;;3.23;0.67;;;;;;;15.90;33.14;99955.50;31215590;28;97564;-64
2023/10/15 12:31:14;;;;;;;5.73;1.03;;;;;;;19.73;28.79;99941.53;31216020;28;96721;-63
2023/10/15 12:46:16;;;;;;;3.42;0.77;;;;;;;22.42;25.67;99944.94;31213198;27;99001;-62
2023/10/15 13:01:20;;;;;;;7.80;1.37;;;;;;;15.64;35.11;99950.19;31214123;28;97863;-64
2023/10/15 13:16:20;;;;;;;7.63;1.53;;;;;;;23.77;26.08;99939.50;31212615;27;97672;-62
2023/10/15 13:31:20;;;;;;;4.65;1.23;;;;;;;20.60;30.19;99939.81;31210436;28;111467;-65
2023/10/15 13:46:21;;;;;;;2.23;1.00;;;;;;;22.38;26.04;99932.97;31206920;27;98195;-65
2023/10/15 14:01:21;;;;;;;4.35;1.10;;;;;;;23.11;27.11;99927.09;31207806;27;97522;-65
2023/10/15 14:16:23;;;;;;;4.38;1.10;;;;;;;21.82;29.17;99943.94;31205656;28;97461;-64
2023/10/15 14:31:25;;;;;;;3.60;1.00;;;;;;;17.09;34.30;99943.53;31206753;28;97499;-62
2023/10/15 14:46:26;;;;;;;3.50;1.17;;;;;;;13.67;39.25;99959.78;31204965;27;97322;-65
2023/10/15 15:01:26;;;;;;;4.75;1.40;;;;;;;11.63;43.43;99974.03;31212122;27;114449;-63
2023/10/15 15:16:27;;;;;;;9.00;1.80;;;;;;;14.43;42.88;99981.38;31223618;27;97073;-65
2023/10/15 15:31:27;;;;;;;5.75;1.60;;;;;;;11.40;44.72;100000.75;31222787;27;97494;-62
2023/10/15 15:46:28;;;;;;;3.22;1.38;;;;;;;9.87;48.04;100019.84;31218373;27;112405;-63
2023/10/15 16:01:28;;;;;;;3.38;1.30;;;;;;;8.97;49.95;100042.81;31218945;27;97198;-62
2023/10/15 16:16:28;;;;;;;5.10;1.90;;;;;;;8.38;51.85;100083.44;31217903;27;96691;-63
2023/10/15 16:31:29;;;;;;;4.32;1.70;;;;;;;8.16;53.19;100083.97;31215567;28;102032;-62
2023/10/15 16:46:29;;;;;;;2.50;1.20;;;;;;;7.67;54.42;100101.22;31214274;27;97390;-62
2023/10/15 17:01:29;;;;;;;5.78;1.98;;;;;;;7.28;56.57;100130.69;31214075;28;107647;-64
2023/10/15 17:16:30;;;;;;;6.07;2.50;;;;;;;6.98;57.79;100143.25;31213076;27;102964;-61
2023/10/15 17:31:30;;;;;;;5.40;2.17;;;;;;;7.13;58.75;100137.47;31210951;27;97272;-63
2023/10/15 17:46:30;;;;;;;6.28;2.83;;;;;;;7.11;58.73;100150.88;31225070;27;98366;-62
2023/10/15 18:01:31;;;;;;;6.22;2.80;;;;;;;7.11;60.20;100166.78;31209616;27;104516;-65
2023/10/15 18:16:33;;;;;;;6.00;2.20;;;;;;;6.86;61.01;100168.28;31207584;28;105301;-63
2023/10/15 18:31:34;;;;;;;5.53;2.63;;;;;;;6.61;61.89;100181.19;31206556;27;97413;-62
2023/10/15 18:46:35;;;;;;;6.13;2.50;;;;;;;6.40;62.45;100199.94;31226242;27;97133;-62
2023/10/15 19:01:35;;;;;;;7.53;2.42;;;;;;;6.16;63.79;100229.50;31224356;28;107251;-62
2023/10/15 19:16:35;;;;;;;4.63;1.80;;;;;;;6.13;64.27;100229.78;31223430;27;97525;-62
2023/10/15 19:31:36;;;;;;;3.95;1.50;;;;;;;6.22;64.33;100245.63;31223227;27;97425;-63
2023/10/15 19:46:36;;;;;;;3.20;1.42;;;;;;;6.18;65.14;100256.63;31221651;27;112729;-62
2023/10/15 20:01:39;;;;;;;5.00;1.65;;;;;;;6.13;65.35;100272.09;31220854;28;102313;-64
2023/10/15 20:16:40;;;;;;;3.13;1.80;;;;;;;6.07;66.38;100278.78;31201170;28;97116;-62
2023/10/15 20:31:40;;;;;;;2.75;1.20;;;;;;;5.96;66.35;100287.66;31218998;28;97043;-64
2023/10/15 20:46:41;;;;;;;2.92;1.30;;;;;;;5.83;66.74;100302.94;31216568;27;115103;-62
2023/10/15 21:01:41;;;;;;;3.88;1.85;;;;;;;5.74;67.37;100297.50;31216231;28;97453;-62
2023/10/15 21:16:41;;;;;;;3.55;1.50;;;;;;;5.66;67.95;100305.28;31214437;28;96643;-62
2023/10/15 21:31:42;;;;;;;5.05;1.25;;;;;;;5.62;68.22;100311.81;31214089;27;97096;-64
2023/10/15 21:46:44;;;;;;;2.67;1.48;;;;;;;5.62;68.59;100305.66;31212846;28;114857;-62
2023/10/15 22:01:44;;;;;;;3.20;1.30;;;;;;;5.60;69.09;100326.94;31211975;27;97036;-62
2023/10/15 22:16:48;;;;;;;2.55;1.17;;;;;;;5.56;69.75;100338.75;31210702;27;97188;-62
2023/10/15 22:31:50;;;;;;;1.73;0.90;;;;;;;5.51;69.49;100335.66;31209529;28;97337;-62
2023/10/15 22:46:50;;;;;;;4.88;1.23;;;;;;;5.37;69.74;100337.72;31206726;28;96783;-63
2023/10/15 23:01:51;;;;;;;3.85;0.90;;;;;;;5.31;69.95;100355.91;31207114;28;97466;-64
2023/10/15 23:16:52;;;;;;;1.77;0.70;;;;;;;5.45;70.25;100370.56;31207245;27;97097;-62
2023/10/15 23:31:53;;;;;;;3.08;0.98;;;;;;;5.48;70.28;100373.78;31227219;27;97243;-64
2023/10/15 23:47:11;;;;;;;4.07;1.10;;;;;;;5.61;70.62;100378.84;31225229;27;97210;-64
